INFORMACIÓN METAR y TAF
METAR FOR LEIB
ADDS - METARS form results

(0050 UTC 05 July 2020)
Data provider http://aviationweather.gov/metar/data/
 
METAR text: LEIB 050030Z 35003KT 330V040 CAVOK 20/16 Q1021 NOSIG
Conditions at: LEIB (IBIZA/ES CODOLA , ES) observed 0030 UTC 05 July 2020
Temperature: 20.0°C (68°F)
Dewpoint: 16.0°C (61°F) [RH = 78%]
Pressure (altimeter): 30.15 inches Hg (1021.0 mb)
Winds: from the N (350 degrees) at 3 MPH (3 knots; 1.5 m/s)
Visibility: 6 or more miles (10+ km)
Ceiling: ceiling and visibility are OK
Clouds: unknown
Weather: no significant weather observed at this time

METAR text: LEIB 050000Z 33002KT CAVOK 21/18 Q1021 NOSIG
Conditions at: LEIB (IBIZA/ES CODOLA , ES) observed 0000 UTC 05 July 2020
Temperature: 21.0°C (70°F)
Dewpoint: 18.0°C (64°F) [RH = 83%]
Pressure (altimeter): 30.15 inches Hg (1021.0 mb)
Winds: from the NNW (330 degrees) at 2 MPH (2 knots; 1.0 m/s)
Visibility: 6 or more miles (10+ km)
Ceiling: ceiling and visibility are OK
Clouds: unknown
Weather: no significant weather observed at this time

Forecast for: LEIB (IBIZA/ES CODOLA , ES)
Text: TAF LEIB 042000Z 0421/0521 VRB04KT 9999 FEW020 TX28/0513Z TN20/0505Z
Forecast period: 2100 UTC 04 July 2020 to 0800 UTC 05 July 2020
Forecast type: FROM: standard forecast or significant change
Winds: variable direction winds at 5 MPH (4 knots; 2.1 m/s)
Visibility: 6 or more miles 10+ km)
Ceiling: at least 12,000 feet AGL
Clouds: few clouds at 2000 feet AGL
Weather: no significant weather forecast for this period
Text: BECMG 0508/0510 12010KT
Forecast period: 0800 to 2100 UTC 05 July 2020
Forecast type: BECOMING: Conditions expected to become as follows by 1000 UTC 05 July 2020
Winds: from the ESE (120 degrees) at 12 MPH (10 knots; 5.1 m/s)
Visibility: 6 or more miles 10+ km)
Ceiling: at least 12,000 feet AGL
Clouds: few clouds at 2000 feet AGL
Weather: no significant weather forecast for this period

 MAPA DE AEROPUERTO

 INFORMACIÓN DE PISTA
Pista 06 Longitud 9186 ft Ancho 148 ft
Elevación 13 ft Umbral desplazado 0 ft Rumbo de pista 62
Pista 24 Longitud 9186 ft Ancho 148 ft
Elevación 16 ft Umbral desplazado 0 ft Rumbo de pista 242

 FRECUANCIAS DEL AEROPUERTO
Tipo APP Nombre PALMA APP Frecuencia 118.125 MHZ
Tipo APP Nombre APP Frecuencia 119.8 MHZ
Tipo ATIS Nombre ATIS Frecuencia 117.8 MHZ
Tipo GND Nombre GND Frecuencia 121.8 MHZ
Tipo TWR Nombre TWR Frecuencia 118.5 MHZ

 RADIO AYUDAS DEL AEROPUERTO
Tipo VOR-DME Nombre Ibiza Frecuencia 117800 KHZ
Tipo NDB Nombre Ibiza Frecuencia 394 KHZ



Powered by Virtual Airlines Manager [v2.6.2]